»·PEaware :: UPS1014 KSLC-KONT

UPS1014 :: KSLC-KONT

FLIGHT INFORMATION

Flight Status: Arrived
Operator:
United Parcel Service
More flights by this operator :: More flights under this callsign
Pilot: Jim M. (18055)
Aircraft: BOEING 767-300
(B763)
More flights by this aircraft type
Origin: KSLC Salt Lake City Intl
United States
Destination: KONT Ontario Intl
United States
More flights between these airports :: More routes between these airports
Route: ZIONZ1 EHK BLD Q114 NATEE EAGLZ2
File this flight plan on PilotEdge
Remarks:
Altitude:
(Current/Filed)
34,000ft
Speed:
(Current/Filed)
450kts
Departed: 04-Feb-19 10:37 AM
Arrived: 04-Feb-19 12:17 PM
Distance/Time
Traveled:
484nm/1:40
Distance/Time
To Go:
Arrived

Flight Plot

Page will automatically refresh every two minutes.

Flight plan parsing failed; only flown route is shown


Map Options




Map Legend


Flown Route
Filed Route
Departure Airport
Arrival Airport
Navaid (VOR, NDB)
Fix

Horizontal Profiles

Position Reports

Time Latitude Longitude Heading Altitude Ground
Speed
04-Feb-19 09:38 40.802375 -111.983553 356 4228ft 0kts
04-Feb-19 09:39 40.802375 -111.983553 356 4228ft 0kts
04-Feb-19 09:40 40.802375 -111.983553 356 4228ft 0kts
04-Feb-19 09:40 40.802375 -111.983553 356 4228ft 0kts
04-Feb-19 09:42 40.802375 -111.983553 356 4228ft 0kts
04-Feb-19 09:43 40.802375 -111.983553 356 4228ft 0kts
04-Feb-19 09:43 40.802375 -111.983553 356 4228ft 0kts
04-Feb-19 09:44 40.802375 -111.983553 356 4228ft 0kts
04-Feb-19 09:46 40.802375 -111.983553 356 4228ft 0kts
04-Feb-19 09:47 40.802375 -111.983553 356 4228ft 0kts
04-Feb-19 09:47 40.802375 -111.983553 356 4228ft 0kts
04-Feb-19 09:48 40.802375 -111.983553 356 4228ft 0kts
04-Feb-19 09:50 40.802375 -111.983553 356 4228ft 0kts
04-Feb-19 09:50 40.802375 -111.983553 356 4228ft 0kts
04-Feb-19 09:51 40.802375 -111.983553 356 4228ft 0kts
04-Feb-19 09:52 40.802375 -111.983553 356 4228ft 0kts
04-Feb-19 09:53 40.802375 -111.983553 356 4228ft 0kts
04-Feb-19 09:54 40.802375 -111.983553 356 4228ft 0kts
04-Feb-19 09:55 40.802375 -111.983553 356 4228ft 0kts
04-Feb-19 09:56 40.802375 -111.983553 356 4228ft 0kts
04-Feb-19 09:57 40.802375 -111.983553 356 4228ft 0kts
04-Feb-19 09:58 40.802375 -111.983553 356 4228ft 0kts
04-Feb-19 09:59 40.802375 -111.983553 356 4228ft 0kts
04-Feb-19 10:00 40.802375 -111.983553 356 4228ft 0kts
04-Feb-19 10:01 40.802375 -111.983553 356 4228ft 0kts
04-Feb-19 10:02 40.802375 -111.983553 356 4228ft 0kts
04-Feb-19 10:03 40.802375 -111.983553 356 4228ft 0kts
04-Feb-19 10:04 40.802375 -111.983553 356 4228ft 0kts
04-Feb-19 10:05 40.802375 -111.983553 356 4228ft 0kts
04-Feb-19 10:06 40.802375 -111.983553 356 4228ft 0kts
04-Feb-19 10:07 40.802375 -111.983553 356 4228ft 0kts
04-Feb-19 10:08 40.802375 -111.983553 356 4228ft 0kts
04-Feb-19 10:09 40.802375 -111.983553 356 4228ft 0kts
04-Feb-19 10:10 40.802375 -111.983553 356 4228ft 0kts
04-Feb-19 10:11 40.802375 -111.983553 356 4228ft 0kts
04-Feb-19 10:12 40.802375 -111.983553 356 4228ft 0kts
04-Feb-19 10:13 40.802375 -111.983553 356 4228ft 0kts
04-Feb-19 10:14 40.802375 -111.983553 356 4228ft 0kts
04-Feb-19 10:15 40.802375 -111.983553 356 4228ft 0kts
04-Feb-19 10:16 40.802375 -111.983553 356 4228ft 0kts
04-Feb-19 10:17 40.802375 -111.983553 356 4228ft 0kts
04-Feb-19 10:18 40.802375 -111.983553 356 4228ft 0kts
04-Feb-19 10:19 40.802375 -111.983553 356 4228ft 0kts
04-Feb-19 10:20 40.802375 -111.983553 356 4228ft 0kts
04-Feb-19 10:21 40.801942 -111.983718 38 4227ft 2kts
04-Feb-19 10:22 40.801674 -111.984417 88 4227ft 2kts
04-Feb-19 10:23 40.801672 -111.984569 87 4227ft 0kts
04-Feb-19 10:24 40.801672 -111.984569 87 4227ft 0kts
04-Feb-19 10:25 40.801672 -111.984568 87 4227ft 0kts
04-Feb-19 10:26 40.801672 -111.984568 87 4227ft 0kts
04-Feb-19 10:27 40.801736 -111.983485 84 4227ft 13kts
04-Feb-19 10:28 40.804461 -111.981280 353 4231ft 25kts
04-Feb-19 10:29 40.806002 -111.981248 63 4231ft 0kts
04-Feb-19 10:30 40.806002 -111.981248 63 4231ft 0kts
04-Feb-19 10:31 40.806002 -111.981248 63 4231ft 0kts
04-Feb-19 10:32 40.806002 -111.981248 63 4231ft 0kts
04-Feb-19 10:33 40.806175 -111.980902 37 4231ft 6kts
04-Feb-19 10:34 40.807398 -111.979109 81 4231ft 0kts
04-Feb-19 10:35 40.807490 -111.977932 95 4231ft 9kts
04-Feb-19 10:36 40.794885 -111.975428 175 4231ft 143kts
04-Feb-19 10:37 40.751519 -111.967955 174 6619ft 172kts
04-Feb-19 10:38 40.695140 -111.959088 184 8309ft 228kts
04-Feb-19 10:39 40.630415 -111.958327 183 11582ft 237kts
04-Feb-19 10:40 40.561914 -111.956021 183 13991ft 271kts
04-Feb-19 10:41 40.476428 -111.952865 183 15785ft 336kts
04-Feb-19 10:42 40.381197 -111.946700 183 19233ft 349kts
04-Feb-19 10:43 40.282435 -111.939903 184 22406ft 361kts
04-Feb-19 10:44 40.182286 -111.952532 193 25365ft 365kts
04-Feb-19 10:45 40.079381 -111.968179 194 27995ft 379kts
04-Feb-19 10:46 39.972966 -111.983756 195 30647ft 387kts
04-Feb-19 10:47 39.869213 -111.998805 197 33735ft 368kts
04-Feb-19 10:48 39.767695 -112.013613 197 33770ft 363kts
04-Feb-19 10:49 39.667049 -112.028269 197 33777ft 364kts
04-Feb-19 10:50 39.566328 -112.042858 197 33781ft 365kts
04-Feb-19 10:51 39.465202 -112.057452 197 33782ft 366kts
04-Feb-19 10:52 39.364888 -112.071702 197 33777ft 366kts
04-Feb-19 10:53 39.267571 -112.085507 196 33775ft 365kts
04-Feb-19 10:54 39.166267 -112.099825 197 33774ft 365kts
04-Feb-19 10:55 39.076831 -112.147359 215 33771ft 345kts
04-Feb-19 10:56 38.991667 -112.208620 215 33765ft 349kts
04-Feb-19 10:57 38.905035 -112.271465 215 33767ft 358kts
04-Feb-19 10:58 38.817085 -112.335160 215 33778ft 361kts
04-Feb-19 10:59 38.729567 -112.398404 215 33781ft 361kts
04-Feb-19 11:00 38.641330 -112.462029 215 33793ft 361kts
04-Feb-19 11:01 38.553153 -112.525406 215 33796ft 362kts
04-Feb-19 11:02 38.464761 -112.588769 215 33796ft 361kts
04-Feb-19 11:03 38.376890 -112.651570 214 33797ft 361kts
04-Feb-19 11:04 38.288686 -112.714445 214 33810ft 361kts
04-Feb-19 11:05 38.200692 -112.777003 214 33808ft 362kts
04-Feb-19 11:06 38.112958 -112.839167 214 33804ft 360kts
04-Feb-19 11:07 38.025945 -112.900674 214 33802ft 356kts
04-Feb-19 11:08 37.939792 -112.961400 214 33806ft 352kts
04-Feb-19 11:09 37.854009 -113.021706 215 33823ft 350kts
04-Feb-19 11:10 37.771544 -113.085023 223 33826ft 344kts
04-Feb-19 11:11 37.697276 -113.161533 223 33818ft 344kts
04-Feb-19 11:12 37.622932 -113.238013 222 33816ft 344kts
04-Feb-19 11:13 37.548631 -113.314283 222 33814ft 345kts
04-Feb-19 11:14 37.474382 -113.390301 222 33826ft 344kts
04-Feb-19 11:15 37.400128 -113.466102 222 33847ft 344kts
04-Feb-19 11:16 37.325825 -113.541784 223 33858ft 344kts
04-Feb-19 11:17 37.251136 -113.617652 222 33856ft 344kts
04-Feb-19 11:18 37.176679 -113.693077 222 33873ft 344kts
04-Feb-19 11:19 37.101909 -113.768613 222 33866ft 345kts
04-Feb-19 11:20 37.025533 -113.845616 222 33866ft 358kts
04-Feb-19 11:21 36.946707 -113.924827 222 33866ft 368kts
04-Feb-19 11:22 36.866757 -114.004944 222 33877ft 367kts
04-Feb-19 11:23 36.787331 -114.084328 222 33874ft 366kts
04-Feb-19 11:24 36.707713 -114.163688 222 33872ft 367kts
04-Feb-19 11:25 36.627946 -114.242985 222 33869ft 367kts
04-Feb-19 11:26 36.548010 -114.322221 222 33846ft 367kts
04-Feb-19 11:27 36.468143 -114.401183 222 33829ft 367kts
04-Feb-19 11:28 36.388135 -114.480074 222 33832ft 367kts
04-Feb-19 11:29 36.307380 -114.559479 222 33833ft 367kts
04-Feb-19 11:30 36.226933 -114.638371 222 33830ft 367kts
04-Feb-19 11:32 36.146377 -114.717147 221 33852ft 367kts
04-Feb-19 11:33 36.065696 -114.795841 221 33846ft 367kts
04-Feb-19 11:34 35.986720 -114.876730 229 33855ft 364kts
04-Feb-19 11:35 35.917865 -114.970615 229 33846ft 365kts
04-Feb-19 11:36 35.849403 -115.063928 229 33864ft 363kts
04-Feb-19 11:37 35.781392 -115.156427 229 33871ft 362kts
04-Feb-19 11:38 35.713659 -115.248305 229 33870ft 361kts
04-Feb-19 11:39 35.645578 -115.340423 229 33867ft 361kts
04-Feb-19 11:40 35.577740 -115.431956 229 33865ft 361kts
04-Feb-19 11:41 35.509715 -115.523518 229 33862ft 360kts
04-Feb-19 11:42 35.441569 -115.614992 229 33859ft 361kts
04-Feb-19 11:43 35.373221 -115.706473 228 33660ft 357kts
04-Feb-19 11:44 35.304269 -115.798544 228 29916ft 375kts
04-Feb-19 11:45 35.233981 -115.892133 228 27106ft 366kts
04-Feb-19 11:46 35.165715 -115.982813 228 24743ft 353kts
04-Feb-19 11:47 35.101717 -116.067595 228 23868ft 322kts
04-Feb-19 11:47 35.050396 -116.135475 228 23873ft 325kts
04-Feb-19 11:49 34.976047 -116.228955 225 23503ft 331kts
04-Feb-19 11:50 34.908366 -116.305044 225 21899ft 330kts
04-Feb-19 11:51 34.842959 -116.381342 227 20078ft 326kts
04-Feb-19 11:51 34.790931 -116.446499 235 18706ft 319kts
04-Feb-19 11:53 34.730453 -116.548525 236 17037ft 313kts
04-Feb-19 11:54 34.679231 -116.634719 236 16788ft 317kts
04-Feb-19 11:54 34.636215 -116.706923 235 15602ft 309kts
04-Feb-19 11:55 34.588841 -116.793420 242 14019ft 304kts
04-Feb-19 11:56 34.548449 -116.882830 241 12163ft 298kts
04-Feb-19 11:57 34.496308 -116.959630 231 10921ft 275kts
04-Feb-19 11:58 34.448146 -117.027285 231 10961ft 262kts
04-Feb-19 11:59 34.399698 -117.095207 233 10042ft 265kts
04-Feb-19 12:00 34.343879 -117.154397 203 9518ft 283kts
04-Feb-19 12:01 34.270605 -117.183740 204 9022ft 273kts
04-Feb-19 12:02 34.198597 -117.212407 203 9026ft 272kts
04-Feb-19 12:03 34.132069 -117.238056 204 9023ft 234kts
04-Feb-19 12:04 34.067991 -117.263383 203 6759ft 253kts
04-Feb-19 12:05 34.002487 -117.292535 203 5263ft 247kts
04-Feb-19 12:06 33.965363 -117.341997 297 5030ft 203kts
04-Feb-19 12:07 34.013083 -117.367551 342 5022ft 181kts
04-Feb-19 12:08 34.063997 -117.370203 2 4333ft 187kts
04-Feb-19 12:09 34.106749 -117.347566 83 4051ft 196kts
04-Feb-19 12:10 34.080024 -117.299378 191 4048ft 209kts
04-Feb-19 12:11 34.055417 -117.354113 273 4034ft 197kts
04-Feb-19 12:12 34.055123 -117.413961 273 3642ft 152kts
04-Feb-19 12:13 34.055122 -117.463564 272 2877ft 145kts
04-Feb-19 12:14 34.055124 -117.512607 271 2100ft 144kts
04-Feb-19 12:15 34.055060 -117.561023 270 1326ft 142kts
04-Feb-19 12:16 34.054907 -117.602117 267 927ft 26kts
04-Feb-19 12:17 34.054244 -117.603988 171 927ft 0kts
04-Feb-19 12:18 34.053844 -117.599354 90 922ft 27kts
04-Feb-19 12:19 34.053875 -117.590128 89 922ft 23kts
04-Feb-19 12:20 34.053190 -117.582520 165 920ft 21kts
04-Feb-19 12:21 34.049350 -117.580500 183 907ft 3kts
04-Feb-19 12:22 34.048998 -117.580505 179 906ft 0kts
04-Feb-19 12:23 34.048998 -117.580505 179 906ft 0kts
04-Feb-19 12:24 34.048998 -117.580505 179 906ft 0kts
04-Feb-19 12:25 34.048998 -117.580505 179 906ft 0kts

Navigation Log

Ident Type
Flight plan parsing failed, navigation log unavailable